Балаганное

Карта отелей и гостиниц, располагающихся рядом с аэропортом Балаганное :

Балаганное Магаданская область 59° 41' 47.4" N, 149° 4' 19.2612" E
Балаганное Магаданская область 59° 41' 47.4" N, 149° 4' 19.2612" E
Код аэродрома ИКАО
ZA0W
Код аэродрома RU
ЗА0В
Координаты
N59.69650° E149.07202°
Превышение над уровнем моря
15
Основная полоса
18/36
Курс магнитный
181/001
Длина основной ВПП
1110
Ширина основной ВПП
60
Покрытие основной ВПП
Нетвёрдое (гравий)
Освещение ВПП
Нет
Тип: 
Аэродром
Класс аэродрома: 
Принадлежность: 
ГА
Статус: 
Недействующий
Сайт: 
E-mail аэродрома: 
Страна: 
Россия
Регион: 
Магаданская область
Город: 
Дополнительная информация: 

Найти трансфер

С помощью этой формы Вы можете найти трансфер из аэропорта Балаганное в город, аэропорт или вокзал:

Карта места

Javascript is required to view this map.

Погода в аэропортах:

Авиационная погода в Москва - Внуково

Погода METAR: 
UUWW 051100Z 00000MPS 9999 -RA BKN026 19/15 Q1016 R06/290050 NOSIG
Время наблюдения
2021-08-05T11:00:00Z
Температура C
19.0
Точка росы
15.0
Направление ветра
0
Скорость ветра (узлы)
0
Метео видимость
6.21
Явления погоды
-RA
Условия полета
MVFR
Аэропорт подробнее: 

Авиационная погода в Магнитогорске

Погода METAR: 
USCM 051100Z 15003MPS 9999 TS BKN040CB 32/12 Q1009 R18/090060 TEMPO VRB21MPS 2000 TSRAGR SQ BKN007CB RMK QFE719
Время наблюдения
2021-08-05T11:00:00Z
Температура C
32.0
Точка росы
12.0
Направление ветра
150
Скорость ветра (узлы)
6
Метео видимость
6.21
Явления погоды
TS
Условия полета
VFR
Аэропорт подробнее: 

Авиационная погода в Савонлинна

Регион: 
Погода METAR: 
EFSA 051050Z AUTO 02007KT 350V060 9999 VCSH //////CB 18/09 Q1016
Время наблюдения
2021-08-05T10:50:00Z
Температура C
18.0
Точка росы
9.0
Направление ветра
20
Скорость ветра (узлы)
7
Метео видимость
6.21
Явления погоды
VCSH
Условия полета

Авиационная погода в Лаппеэнранта

Регион: 
Погода METAR: 
EFLP 051050Z AUTO 36005KT 290V060 9999 VCSH //////CB 19/07 Q1016
Время наблюдения
2021-08-05T10:50:00Z
Температура C
19.0
Точка росы
7.0
Направление ветра
360
Скорость ветра (узлы)
5
Метео видимость
6.21
Явления погоды
VCSH
Условия полета